Skip to main content
NVIR logo

NVIR · Horizon Kinetics Energy and Remediation ETF ETF

Alerts for NVIR
$40.62 -0.19 (-0.46%) At close · Sep 4

Shares sold short and not yet covered, reported twice monthly. Days to cover is the reported short position divided by average daily volume.

NVIR Latest Reported Short Interest

FINRA reported 2 NVIR shares sold short as of the August 14, 2026 settlement date, a decrease of 137 shares. Days to cover was 1.00 based on FINRA's reported average daily volume.

Official FINRA short-interest data · share counts are restated for subsequent splits of this listing

Short Interest History

Settlement Date Current Position Previous Position Change Days to Cover
2026-09-15 Scheduled
FINRA publishes Sep 24
2026-08-31 Scheduled
FINRA publishes Sep 10
2026-08-14 2 139 -137 1.00
2026-07-31 139 167 -28 1.00
2026-07-15 167 200 -33 1.00
2026-06-30 200 217 -17 1.00
2026-06-15 217 188 +29 1.00
2026-05-29 188 160 +28 1.00
2026-05-15 160 161 -1 1.00
2026-04-30 161 207 -46 1.00
2026-04-15 207 1,187 -980 1.00
2026-03-31 1,187 608 +579 1.00
2026-03-13 608 3,652 -3,044 1.00
2026-02-27 3,652 3,470 +182 4.81
2026-02-13 3,470 2,691 +779 5.75
2026-01-30 2,691 1,550 +1,141 7.16
2026-01-15 1,550 1,260 +290 1.09
2025-12-31 1,260 2,163 -903 2.06
2025-12-15 2,163 2,419 -256 4.32
2025-11-28 2,419 2,798 -379 6.33
2025-11-14 2,798 3,165 -367 9.11
2025-10-31 3,165 2,904 +261 4.05
2025-10-15 2,904 2,666 +238 7.62
2025-09-30 2,666 1,905 +761 3.18
2025-09-15 1,905 1,750 +155 5.40

Full FINRA short interest reporting calendar

Showing 1–23 of 23 settlements